sensor_id;sensor_type;location;lat;lon;timestamp;P1;durP1;ratioP1;P2;durP2;ratioP2
7150;SDS011;3617;48.836;9.172;2023-08-06T00:00:43;7.30;;;5.10;;
7150;SDS011;3617;48.836;9.172;2023-08-06T00:03:09;6.47;;;4.67;;
7150;SDS011;3617;48.836;9.172;2023-08-06T00:05:35;6.37;;;4.50;;
7150;SDS011;3617;48.836;9.172;2023-08-06T00:08:01;6.27;;;4.33;;
7150;SDS011;3617;48.836;9.172;2023-08-06T00:10:27;6.80;;;4.43;;
7150;SDS011;3617;48.836;9.172;2023-08-06T00:12:53;7.07;;;4.53;;
7150;SDS011;3617;48.836;9.172;2023-08-06T00:15:19;6.23;;;4.30;;
7150;SDS011;3617;48.836;9.172;2023-08-06T00:17:45;5.50;;;4.33;;
7150;SDS011;3617;48.836;9.172;2023-08-06T00:20:12;7.57;;;4.93;;
7150;SDS011;3617;48.836;9.172;2023-08-06T00:22:38;7.17;;;4.57;;
7150;SDS011;3617;48.836;9.172;2023-08-06T00:25:04;6.63;;;4.63;;
7150;SDS011;3617;48.836;9.172;2023-08-06T00:27:30;7.23;;;4.47;;
7150;SDS011;3617;48.836;9.172;2023-08-06T00:29:59;7.17;;;4.33;;
7150;SDS011;3617;48.836;9.172;2023-08-06T00:32:25;8.37;;;4.80;;
7150;SDS011;3617;48.836;9.172;2023-08-06T00:34:51;7.03;;;4.40;;
7150;SDS011;3617;48.836;9.172;2023-08-06T00:37:17;6.57;;;4.40;;
7150;SDS011;3617;48.836;9.172;2023-08-06T00:39:44;6.70;;;4.47;;
7150;SDS011;3617;48.836;9.172;2023-08-06T00:42:10;6.03;;;4.17;;
7150;SDS011;3617;48.836;9.172;2023-08-06T00:44:37;8.13;;;4.77;;
7150;SDS011;3617;48.836;9.172;2023-08-06T00:47:03;5.87;;;4.60;;
7150;SDS011;3617;48.836;9.172;2023-08-06T00:49:29;5.70;;;4.23;;
7150;SDS011;3617;48.836;9.172;2023-08-06T00:51:55;6.17;;;4.83;;
7150;SDS011;3617;48.836;9.172;2023-08-06T00:54:22;6.93;;;4.63;;
7150;SDS011;3617;48.836;9.172;2023-08-06T00:56:49;7.90;;;5.17;;
7150;SDS011;3617;48.836;9.172;2023-08-06T00:59:15;9.50;;;5.33;;
7150;SDS011;3617;48.836;9.172;2023-08-06T01:01:41;6.73;;;4.37;;
7150;SDS011;3617;48.836;9.172;2023-08-06T01:04:07;6.40;;;4.73;;
7150;SDS011;3617;48.836;9.172;2023-08-06T01:06:43;7.83;;;4.87;;
7150;SDS011;3617;48.836;9.172;2023-08-06T01:14:28;4.90;;;3.30;;
7150;SDS011;3617;48.836;9.172;2023-08-06T01:16:56;6.40;;;4.27;;
7150;SDS011;3617;48.836;9.172;2023-08-06T01:19:24;6.93;;;4.47;;
7150;SDS011;3617;48.836;9.172;2023-08-06T01:21:50;5.50;;;4.00;;
7150;SDS011;3617;48.836;9.172;2023-08-06T01:24:16;5.13;;;3.73;;
7150;SDS011;3617;48.836;9.172;2023-08-06T01:26:42;4.97;;;3.80;;
7150;SDS011;3617;48.836;9.172;2023-08-06T01:31:37;5.87;;;3.50;;
7150;SDS011;3617;48.836;9.172;2023-08-06T01:34:03;4.50;;;3.53;;
7150;SDS011;3617;48.836;9.172;2023-08-06T01:36:30;4.27;;;3.50;;
7150;SDS011;3617;48.836;9.172;2023-08-06T01:38:57;5.43;;;4.03;;
7150;SDS011;3617;48.836;9.172;2023-08-06T01:41:23;5.60;;;3.90;;
7150;SDS011;3617;48.836;9.172;2023-08-06T01:43:49;5.03;;;3.37;;
7150;SDS011;3617;48.836;9.172;2023-08-06T01:46:15;6.63;;;3.97;;
7150;SDS011;3617;48.836;9.172;2023-08-06T01:48:41;5.20;;;3.47;;
7150;SDS011;3617;48.836;9.172;2023-08-06T01:51:07;4.90;;;3.43;;
7150;SDS011;3617;48.836;9.172;2023-08-06T01:53:33;4.23;;;2.97;;
7150;SDS011;3617;48.836;9.172;2023-08-06T01:55:59;4.47;;;2.90;;
7150;SDS011;3617;48.836;9.172;2023-08-06T01:58:25;3.53;;;2.57;;
7150;SDS011;3617;48.836;9.172;2023-08-06T02:00:51;4.73;;;3.00;;
7150;SDS011;3617;48.836;9.172;2023-08-06T02:03:17;4.23;;;2.73;;
7150;SDS011;3617;48.836;9.172;2023-08-06T02:05:43;4.90;;;2.73;;
7150;SDS011;3617;48.836;9.172;2023-08-06T02:08:10;4.00;;;2.90;;
7150;SDS011;3617;48.836;9.172;2023-08-06T02:10:36;3.17;;;2.57;;
7150;SDS011;3617;48.836;9.172;2023-08-06T02:13:02;3.30;;;2.60;;
7150;SDS011;3617;48.836;9.172;2023-08-06T02:15:28;3.33;;;2.57;;
7150;SDS011;3617;48.836;9.172;2023-08-06T02:17:54;3.20;;;2.37;;
7150;SDS011;3617;48.836;9.172;2023-08-06T02:20:20;3.27;;;2.47;;
7150;SDS011;3617;48.836;9.172;2023-08-06T02:22:46;4.13;;;2.50;;
7150;SDS011;3617;48.836;9.172;2023-08-06T02:25:12;4.17;;;2.90;;
7150;SDS011;3617;48.836;9.172;2023-08-06T02:27:38;4.30;;;2.83;;
7150;SDS011;3617;48.836;9.172;2023-08-06T02:30:05;3.30;;;2.63;;
7150;SDS011;3617;48.836;9.172;2023-08-06T02:32:31;3.40;;;2.47;;
7150;SDS011;3617;48.836;9.172;2023-08-06T02:34:58;5.07;;;2.40;;
7150;SDS011;3617;48.836;9.172;2023-08-06T02:37:23;3.47;;;2.47;;
7150;SDS011;3617;48.836;9.172;2023-08-06T02:39:50;3.43;;;2.30;;
7150;SDS011;3617;48.836;9.172;2023-08-06T02:42:16;4.93;;;2.33;;
7150;SDS011;3617;48.836;9.172;2023-08-06T02:44:42;3.20;;;2.40;;
7150;SDS011;3617;48.836;9.172;2023-08-06T02:47:08;2.47;;;2.03;;
7150;SDS011;3617;48.836;9.172;2023-08-06T02:49:34;2.90;;;2.20;;
7150;SDS011;3617;48.836;9.172;2023-08-06T02:52:00;2.97;;;2.13;;
7150;SDS011;3617;48.836;9.172;2023-08-06T02:54:26;2.90;;;2.20;;
7150;SDS011;3617;48.836;9.172;2023-08-06T02:56:52;2.97;;;2.17;;
7150;SDS011;3617;48.836;9.172;2023-08-06T02:59:18;2.97;;;2.40;;
7150;SDS011;3617;48.836;9.172;2023-08-06T03:01:44;12.63;;;2.90;;
7150;SDS011;3617;48.836;9.172;2023-08-06T03:04:10;3.80;;;2.40;;
7150;SDS011;3617;48.836;9.172;2023-08-06T03:06:36;4.00;;;2.57;;
7150;SDS011;3617;48.836;9.172;2023-08-06T03:09:02;3.17;;;2.23;;
7150;SDS011;3617;48.836;9.172;2023-08-06T03:11:28;3.57;;;2.50;;
7150;SDS011;3617;48.836;9.172;2023-08-06T03:13:54;3.57;;;2.47;;
7150;SDS011;3617;48.836;9.172;2023-08-06T03:16:20;3.67;;;2.33;;
7150;SDS011;3617;48.836;9.172;2023-08-06T03:18:46;3.80;;;2.47;;
7150;SDS011;3617;48.836;9.172;2023-08-06T03:21:12;3.13;;;2.60;;
7150;SDS011;3617;48.836;9.172;2023-08-06T03:23:38;2.77;;;1.97;;
7150;SDS011;3617;48.836;9.172;2023-08-06T03:26:04;3.00;;;2.10;;
7150;SDS011;3617;48.836;9.172;2023-08-06T03:28:30;2.70;;;2.20;;
7150;SDS011;3617;48.836;9.172;2023-08-06T03:31:00;3.80;;;2.57;;
7150;SDS011;3617;48.836;9.172;2023-08-06T03:33:26;3.13;;;2.40;;
7150;SDS011;3617;48.836;9.172;2023-08-06T03:35:52;2.83;;;2.20;;
7150;SDS011;3617;48.836;9.172;2023-08-06T03:38:18;3.50;;;1.80;;
7150;SDS011;3617;48.836;9.172;2023-08-06T03:40:44;3.00;;;2.10;;
7150;SDS011;3617;48.836;9.172;2023-08-06T03:43:10;4.10;;;2.20;;
7150;SDS011;3617;48.836;9.172;2023-08-06T03:45:36;3.37;;;2.30;;
7150;SDS011;3617;48.836;9.172;2023-08-06T03:48:02;2.50;;;2.20;;
7150;SDS011;3617;48.836;9.172;2023-08-06T03:50:28;3.23;;;2.20;;
7150;SDS011;3617;48.836;9.172;2023-08-06T03:52:54;3.20;;;2.07;;
7150;SDS011;3617;48.836;9.172;2023-08-06T03:55:20;2.77;;;1.97;;
7150;SDS011;3617;48.836;9.172;2023-08-06T03:57:46;2.87;;;2.37;;
7150;SDS011;3617;48.836;9.172;2023-08-06T04:00:12;3.27;;;2.13;;
7150;SDS011;3617;48.836;9.172;2023-08-06T04:02:39;2.73;;;2.00;;
7150;SDS011;3617;48.836;9.172;2023-08-06T04:05:05;4.10;;;2.33;;
7150;SDS011;3617;48.836;9.172;2023-08-06T04:07:31;4.80;;;2.43;;
7150;SDS011;3617;48.836;9.172;2023-08-06T04:09:57;3.03;;;2.20;;
7150;SDS011;3617;48.836;9.172;2023-08-06T04:12:24;2.10;;;1.90;;
7150;SDS011;3617;48.836;9.172;2023-08-06T04:14:50;3.53;;;2.00;;
7150;SDS011;3617;48.836;9.172;2023-08-06T04:17:17;4.90;;;2.47;;
7150;SDS011;3617;48.836;9.172;2023-08-06T04:19:47;3.40;;;2.40;;
7150;SDS011;3617;48.836;9.172;2023-08-06T04:22:13;3.47;;;2.13;;
7150;SDS011;3617;48.836;9.172;2023-08-06T04:24:39;4.63;;;1.90;;
7150;SDS011;3617;48.836;9.172;2023-08-06T04:27:05;2.53;;;1.90;;
7150;SDS011;3617;48.836;9.172;2023-08-06T04:29:31;2.53;;;1.70;;
7150;SDS011;3617;48.836;9.172;2023-08-06T04:31:57;2.53;;;2.00;;
7150;SDS011;3617;48.836;9.172;2023-08-06T04:34:23;3.37;;;1.53;;
7150;SDS011;3617;48.836;9.172;2023-08-06T04:36:49;2.47;;;1.90;;
7150;SDS011;3617;48.836;9.172;2023-08-06T04:39:15;2.67;;;1.90;;
7150;SDS011;3617;48.836;9.172;2023-08-06T04:41:41;1.77;;;1.53;;
7150;SDS011;3617;48.836;9.172;2023-08-06T04:44:07;3.43;;;1.93;;
7150;SDS011;3617;48.836;9.172;2023-08-06T04:46:33;2.70;;;1.73;;
7150;SDS011;3617;48.836;9.172;2023-08-06T04:48:59;3.07;;;2.00;;
7150;SDS011;3617;48.836;9.172;2023-08-06T04:51:25;2.03;;;1.67;;
7150;SDS011;3617;48.836;9.172;2023-08-06T04:53:51;4.23;;;2.23;;
7150;SDS011;3617;48.836;9.172;2023-08-06T04:56:17;2.87;;;1.40;;
7150;SDS011;3617;48.836;9.172;2023-08-06T04:58:43;4.07;;;2.17;;
7150;SDS011;3617;48.836;9.172;2023-08-06T05:01:09;2.43;;;1.80;;
7150;SDS011;3617;48.836;9.172;2023-08-06T05:03:35;4.00;;;1.80;;
7150;SDS011;3617;48.836;9.172;2023-08-06T05:06:01;4.53;;;1.90;;
7150;SDS011;3617;48.836;9.172;2023-08-06T05:08:27;3.00;;;1.90;;
7150;SDS011;3617;48.836;9.172;2023-08-06T05:10:53;3.50;;;1.83;;
7150;SDS011;3617;48.836;9.172;2023-08-06T05:13:19;2.43;;;1.70;;
7150;SDS011;3617;48.836;9.172;2023-08-06T05:15:45;2.70;;;1.73;;
7150;SDS011;3617;48.836;9.172;2023-08-06T05:18:11;2.17;;;1.70;;
7150;SDS011;3617;48.836;9.172;2023-08-06T05:20:38;2.67;;;1.77;;
7150;SDS011;3617;48.836;9.172;2023-08-06T05:23:04;2.87;;;1.93;;
7150;SDS011;3617;48.836;9.172;2023-08-06T05:25:30;5.33;;;1.67;;
7150;SDS011;3617;48.836;9.172;2023-08-06T05:27:56;2.30;;;1.50;;
7150;SDS011;3617;48.836;9.172;2023-08-06T05:30:22;2.53;;;1.83;;
7150;SDS011;3617;48.836;9.172;2023-08-06T05:32:48;1.43;;;1.20;;
7150;SDS011;3617;48.836;9.172;2023-08-06T05:35:14;2.87;;;1.43;;
7150;SDS011;3617;48.836;9.172;2023-08-06T05:37:40;2.70;;;1.57;;
7150;SDS011;3617;48.836;9.172;2023-08-06T05:40:06;1.87;;;1.47;;
7150;SDS011;3617;48.836;9.172;2023-08-06T05:42:32;2.33;;;1.40;;
7150;SDS011;3617;48.836;9.172;2023-08-06T05:44:58;1.30;;;1.20;;
7150;SDS011;3617;48.836;9.172;2023-08-06T05:47:24;1.97;;;1.30;;
7150;SDS011;3617;48.836;9.172;2023-08-06T05:49:50;1.23;;;1.13;;
7150;SDS011;3617;48.836;9.172;2023-08-06T05:52:16;1.60;;;1.10;;
7150;SDS011;3617;48.836;9.172;2023-08-06T05:54:42;2.67;;;1.00;;
7150;SDS011;3617;48.836;9.172;2023-08-06T05:57:08;2.53;;;1.13;;
7150;SDS011;3617;48.836;9.172;2023-08-06T05:59:34;1.30;;;1.00;;
7150;SDS011;3617;48.836;9.172;2023-08-06T06:02:00;1.00;;;0.90;;
7150;SDS011;3617;48.836;9.172;2023-08-06T06:04:27;2.17;;;0.80;;
7150;SDS011;3617;48.836;9.172;2023-08-06T06:06:53;1.47;;;1.00;;
7150;SDS011;3617;48.836;9.172;2023-08-06T06:09:19;1.30;;;0.90;;
7150;SDS011;3617;48.836;9.172;2023-08-06T06:11:45;0.70;;;0.70;;
7150;SDS011;3617;48.836;9.172;2023-08-06T06:14:12;2.20;;;0.90;;
7150;SDS011;3617;48.836;9.172;2023-08-06T06:16:38;1.00;;;0.70;;
7150;SDS011;3617;48.836;9.172;2023-08-06T06:19:04;0.90;;;0.80;;
7150;SDS011;3617;48.836;9.172;2023-08-06T06:21:30;0.50;;;0.50;;
7150;SDS011;3617;48.836;9.172;2023-08-06T06:23:56;1.30;;;0.80;;
7150;SDS011;3617;48.836;9.172;2023-08-06T06:26:22;0.97;;;0.80;;
7150;SDS011;3617;48.836;9.172;2023-08-06T06:28:48;0.67;;;0.63;;
7150;SDS011;3617;48.836;9.172;2023-08-06T06:31:14;0.63;;;0.60;;
7150;SDS011;3617;48.836;9.172;2023-08-06T06:33:40;0.87;;;0.70;;
7150;SDS011;3617;48.836;9.172;2023-08-06T06:36:06;0.70;;;0.70;;
7150;SDS011;3617;48.836;9.172;2023-08-06T06:38:32;0.70;;;0.50;;
7150;SDS011;3617;48.836;9.172;2023-08-06T06:40:58;0.73;;;0.70;;
7150;SDS011;3617;48.836;9.172;2023-08-06T06:43:25;0.50;;;0.50;;
7150;SDS011;3617;48.836;9.172;2023-08-06T06:45:57;0.63;;;0.60;;
7150;SDS011;3617;48.836;9.172;2023-08-06T06:48:27;0.50;;;0.50;;
7150;SDS011;3617;48.836;9.172;2023-08-06T06:50:54;2.07;;;0.80;;
7150;SDS011;3617;48.836;9.172;2023-08-06T06:53:20;0.60;;;0.60;;
7150;SDS011;3617;48.836;9.172;2023-08-06T06:55:48;0.50;;;0.50;;
7150;SDS011;3617;48.836;9.172;2023-08-06T06:58:15;0.53;;;0.53;;
7150;SDS011;3617;48.836;9.172;2023-08-06T07:00:41;0.50;;;0.50;;
7150;SDS011;3617;48.836;9.172;2023-08-06T07:03:07;1.37;;;0.60;;
7150;SDS011;3617;48.836;9.172;2023-08-06T07:05:33;0.43;;;0.43;;
7150;SDS011;3617;48.836;9.172;2023-08-06T07:07:59;0.50;;;0.50;;
7150;SDS011;3617;48.836;9.172;2023-08-06T07:10:25;0.90;;;0.73;;
7150;SDS011;3617;48.836;9.172;2023-08-06T07:12:51;0.70;;;0.60;;
7150;SDS011;3617;48.836;9.172;2023-08-06T07:15:17;0.97;;;0.53;;
7150;SDS011;3617;48.836;9.172;2023-08-06T07:17:43;1.03;;;0.63;;
7150;SDS011;3617;48.836;9.172;2023-08-06T07:20:10;1.00;;;0.60;;
7150;SDS011;3617;48.836;9.172;2023-08-06T07:22:36;0.70;;;0.70;;
7150;SDS011;3617;48.836;9.172;2023-08-06T07:25:02;2.77;;;0.67;;
7150;SDS011;3617;48.836;9.172;2023-08-06T07:27:28;0.40;;;0.40;;
7150;SDS011;3617;48.836;9.172;2023-08-06T07:29:54;0.83;;;0.60;;
7150;SDS011;3617;48.836;9.172;2023-08-06T07:32:20;1.33;;;0.70;;
7150;SDS011;3617;48.836;9.172;2023-08-06T07:34:46;0.83;;;0.70;;
7150;SDS011;3617;48.836;9.172;2023-08-06T07:37:12;0.80;;;0.50;;
7150;SDS011;3617;48.836;9.172;2023-08-06T07:39:38;1.07;;;0.50;;
7150;SDS011;3617;48.836;9.172;2023-08-06T07:42:06;0.50;;;0.50;;
7150;SDS011;3617;48.836;9.172;2023-08-06T07:44:32;0.60;;;0.60;;
7150;SDS011;3617;48.836;9.172;2023-08-06T07:46:58;0.50;;;0.47;;
7150;SDS011;3617;48.836;9.172;2023-08-06T07:49:24;0.63;;;0.60;;
7150;SDS011;3617;48.836;9.172;2023-08-06T07:51:50;0.40;;;0.40;;
7150;SDS011;3617;48.836;9.172;2023-08-06T07:54:17;0.57;;;0.50;;
7150;SDS011;3617;48.836;9.172;2023-08-06T07:56:43;0.53;;;0.40;;
7150;SDS011;3617;48.836;9.172;2023-08-06T07:59:09;2.10;;;0.50;;
7150;SDS011;3617;48.836;9.172;2023-08-06T08:01:35;0.53;;;0.40;;
7150;SDS011;3617;48.836;9.172;2023-08-06T08:04:01;0.53;;;0.43;;
7150;SDS011;3617;48.836;9.172;2023-08-06T08:06:27;0.40;;;0.40;;
7150;SDS011;3617;48.836;9.172;2023-08-06T08:08:53;0.50;;;0.50;;
7150;SDS011;3617;48.836;9.172;2023-08-06T08:11:20;0.40;;;0.40;;
7150;SDS011;3617;48.836;9.172;2023-08-06T08:13:46;0.40;;;0.40;;
7150;SDS011;3617;48.836;9.172;2023-08-06T08:16:12;0.40;;;0.40;;
7150;SDS011;3617;48.836;9.172;2023-08-06T08:18:38;0.33;;;0.30;;
7150;SDS011;3617;48.836;9.172;2023-08-06T08:21:03;0.30;;;0.30;;
7150;SDS011;3617;48.836;9.172;2023-08-06T08:23:29;0.50;;;0.50;;
7150;SDS011;3617;48.836;9.172;2023-08-06T08:25:56;0.47;;;0.47;;
7150;SDS011;3617;48.836;9.172;2023-08-06T08:28:22;0.40;;;0.40;;
7150;SDS011;3617;48.836;9.172;2023-08-06T08:30:48;0.30;;;0.30;;
7150;SDS011;3617;48.836;9.172;2023-08-06T08:33:14;0.30;;;0.30;;
7150;SDS011;3617;48.836;9.172;2023-08-06T08:35:40;0.30;;;0.30;;
7150;SDS011;3617;48.836;9.172;2023-08-06T08:38:06;0.37;;;0.37;;
7150;SDS011;3617;48.836;9.172;2023-08-06T08:40:32;0.30;;;0.30;;
7150;SDS011;3617;48.836;9.172;2023-08-06T08:42:58;0.20;;;0.20;;
7150;SDS011;3617;48.836;9.172;2023-08-06T08:45:26;0.30;;;0.30;;
7150;SDS011;3617;48.836;9.172;2023-08-06T08:47:52;0.55;;;0.30;;
7150;SDS011;3617;48.836;9.172;2023-08-06T08:50:18;0.43;;;0.30;;
7150;SDS011;3617;48.836;9.172;2023-08-06T08:52:44;0.20;;;0.20;;
7150;SDS011;3617;48.836;9.172;2023-08-06T08:55:11;0.30;;;0.30;;
7150;SDS011;3617;48.836;9.172;2023-08-06T08:57:37;0.20;;;0.20;;
7150;SDS011;3617;48.836;9.172;2023-08-06T09:00:04;0.20;;;0.20;;
7150;SDS011;3617;48.836;9.172;2023-08-06T09:02:30;0.20;;;0.20;;
7150;SDS011;3617;48.836;9.172;2023-08-06T09:04:58;0.20;;;0.20;;
7150;SDS011;3617;48.836;9.172;2023-08-06T09:07:27;0.20;;;0.20;;
7150;SDS011;3617;48.836;9.172;2023-08-06T09:09:55;0.30;;;0.30;;
7150;SDS011;3617;48.836;9.172;2023-08-06T09:12:22;0.20;;;0.20;;
7150;SDS011;3617;48.836;9.172;2023-08-06T09:14:48;0.30;;;0.30;;
7150;SDS011;3617;48.836;9.172;2023-08-06T09:17:14;0.30;;;0.30;;
7150;SDS011;3617;48.836;9.172;2023-08-06T09:19:44;0.30;;;0.30;;
7150;SDS011;3617;48.836;9.172;2023-08-06T09:22:12;0.30;;;0.30;;
7150;SDS011;3617;48.836;9.172;2023-08-06T09:24:39;0.50;;;0.47;;
7150;SDS011;3617;48.836;9.172;2023-08-06T09:27:08;0.23;;;0.23;;
7150;SDS011;3617;48.836;9.172;2023-08-06T09:29:39;0.30;;;0.30;;
7150;SDS011;3617;48.836;9.172;2023-08-06T09:32:05;0.30;;;0.30;;
7150;SDS011;3617;48.836;9.172;2023-08-06T09:34:31;0.30;;;0.30;;
7150;SDS011;3617;48.836;9.172;2023-08-06T09:36:57;0.30;;;0.30;;
7150;SDS011;3617;48.836;9.172;2023-08-06T09:39:27;0.37;;;0.37;;
7150;SDS011;3617;48.836;9.172;2023-08-06T09:41:55;0.30;;;0.30;;
7150;SDS011;3617;48.836;9.172;2023-08-06T09:44:22;0.40;;;0.40;;
7150;SDS011;3617;48.836;9.172;2023-08-06T09:46:49;0.40;;;0.40;;
7150;SDS011;3617;48.836;9.172;2023-08-06T09:49:17;0.73;;;0.37;;
7150;SDS011;3617;48.836;9.172;2023-08-06T09:51:43;0.40;;;0.40;;
7150;SDS011;3617;48.836;9.172;2023-08-06T09:54:11;0.30;;;0.30;;
7150;SDS011;3617;48.836;9.172;2023-08-06T09:56:38;0.30;;;0.20;;
7150;SDS011;3617;48.836;9.172;2023-08-06T09:59:07;0.40;;;0.40;;
7150;SDS011;3617;48.836;9.172;2023-08-06T10:01:34;0.40;;;0.40;;
7150;SDS011;3617;48.836;9.172;2023-08-06T10:04:00;0.33;;;0.30;;
7150;SDS011;3617;48.836;9.172;2023-08-06T10:06:28;0.40;;;0.40;;
7150;SDS011;3617;48.836;9.172;2023-08-06T10:08:54;0.30;;;0.30;;
7150;SDS011;3617;48.836;9.172;2023-08-06T10:11:23;0.40;;;0.40;;
7150;SDS011;3617;48.836;9.172;2023-08-06T10:13:54;0.20;;;0.20;;
7150;SDS011;3617;48.836;9.172;2023-08-06T10:16:21;0.30;;;0.30;;
7150;SDS011;3617;48.836;9.172;2023-08-06T10:18:47;0.40;;;0.40;;
7150;SDS011;3617;48.836;9.172;2023-08-06T10:21:14;0.30;;;0.30;;
7150;SDS011;3617;48.836;9.172;2023-08-06T10:23:41;0.40;;;0.40;;
7150;SDS011;3617;48.836;9.172;2023-08-06T10:26:07;0.30;;;0.30;;
7150;SDS011;3617;48.836;9.172;2023-08-06T10:28:37;0.20;;;0.20;;
7150;SDS011;3617;48.836;9.172;2023-08-06T10:31:03;0.30;;;0.30;;
7150;SDS011;3617;48.836;9.172;2023-08-06T10:33:42;0.20;;;0.20;;
7150;SDS011;3617;48.836;9.172;2023-08-06T10:36:09;0.27;;;0.27;;
7150;SDS011;3617;48.836;9.172;2023-08-06T10:38:43;0.20;;;0.20;;
7150;SDS011;3617;48.836;9.172;2023-08-06T10:41:09;0.22;;;0.22;;
7150;SDS011;3617;48.836;9.172;2023-08-06T10:43:40;0.30;;;0.30;;
7150;SDS011;3617;48.836;9.172;2023-08-06T10:46:21;0.30;;;0.30;;
7150;SDS011;3617;48.836;9.172;2023-08-06T10:48:47;0.30;;;0.30;;
7150;SDS011;3617;48.836;9.172;2023-08-06T10:51:13;0.30;;;0.30;;
7150;SDS011;3617;48.836;9.172;2023-08-06T10:53:46;0.30;;;0.30;;
7150;SDS011;3617;48.836;9.172;2023-08-06T10:56:13;1.75;;;0.60;;
7150;SDS011;3617;48.836;9.172;2023-08-06T10:58:39;0.30;;;0.30;;
7150;SDS011;3617;48.836;9.172;2023-08-06T11:01:05;0.52;;;0.50;;
7150;SDS011;3617;48.836;9.172;2023-08-06T11:03:32;0.40;;;0.40;;
7150;SDS011;3617;48.836;9.172;2023-08-06T11:05:59;0.38;;;0.38;;
7150;SDS011;3617;48.836;9.172;2023-08-06T11:08:26;0.40;;;0.40;;
7150;SDS011;3617;48.836;9.172;2023-08-06T11:10:52;0.40;;;0.40;;
7150;SDS011;3617;48.836;9.172;2023-08-06T11:13:18;0.40;;;0.40;;
7150;SDS011;3617;48.836;9.172;2023-08-06T11:15:45;0.40;;;0.40;;
7150;SDS011;3617;48.836;9.172;2023-08-06T11:18:11;0.57;;;0.50;;
7150;SDS011;3617;48.836;9.172;2023-08-06T11:20:37;0.60;;;0.60;;
7150;SDS011;3617;48.836;9.172;2023-08-06T11:23:04;0.40;;;0.40;;
7150;SDS011;3617;48.836;9.172;2023-08-06T11:25:30;0.50;;;0.50;;
7150;SDS011;3617;48.836;9.172;2023-08-06T11:27:56;0.50;;;0.50;;
7150;SDS011;3617;48.836;9.172;2023-08-06T11:30:22;3.33;;;1.60;;
7150;SDS011;3617;48.836;9.172;2023-08-06T11:32:48;1.53;;;1.03;;
7150;SDS011;3617;48.836;9.172;2023-08-06T11:35:15;0.80;;;0.70;;
7150;SDS011;3617;48.836;9.172;2023-08-06T11:37:47;3.20;;;0.77;;
7150;SDS011;3617;48.836;9.172;2023-08-06T11:40:14;0.70;;;0.70;;
7150;SDS011;3617;48.836;9.172;2023-08-06T11:42:40;0.63;;;0.60;;
7150;SDS011;3617;48.836;9.172;2023-08-06T11:45:07;0.70;;;0.70;;
7150;SDS011;3617;48.836;9.172;2023-08-06T11:47:36;0.67;;;0.67;;
7150;SDS011;3617;48.836;9.172;2023-08-06T11:50:04;0.60;;;0.60;;
7150;SDS011;3617;48.836;9.172;2023-08-06T11:52:30;0.80;;;0.80;;
7150;SDS011;3617;48.836;9.172;2023-08-06T11:55:01;0.80;;;0.80;;
7150;SDS011;3617;48.836;9.172;2023-08-06T11:57:30;0.87;;;0.87;;
7150;SDS011;3617;48.836;9.172;2023-08-06T11:59:59;2.00;;;0.93;;
7150;SDS011;3617;48.836;9.172;2023-08-06T12:02:27;1.00;;;0.90;;
7150;SDS011;3617;48.836;9.172;2023-08-06T12:04:59;2.20;;;0.80;;
7150;SDS011;3617;48.836;9.172;2023-08-06T12:07:26;2.03;;;0.87;;
7150;SDS011;3617;48.836;9.172;2023-08-06T12:09:52;1.83;;;0.70;;
7150;SDS011;3617;48.836;9.172;2023-08-06T12:12:18;1.00;;;0.90;;
7150;SDS011;3617;48.836;9.172;2023-08-06T12:14:44;1.83;;;1.20;;
7150;SDS011;3617;48.836;9.172;2023-08-06T12:17:10;1.27;;;1.10;;
7150;SDS011;3617;48.836;9.172;2023-08-06T12:19:36;1.10;;;1.00;;
7150;SDS011;3617;48.836;9.172;2023-08-06T12:22:02;0.93;;;0.80;;
7150;SDS011;3617;48.836;9.172;2023-08-06T12:24:28;1.23;;;1.00;;
7150;SDS011;3617;48.836;9.172;2023-08-06T12:26:56;1.17;;;0.93;;
7150;SDS011;3617;48.836;9.172;2023-08-06T12:29:22;2.30;;;1.20;;
7150;SDS011;3617;48.836;9.172;2023-08-06T12:31:48;3.53;;;1.10;;
7150;SDS011;3617;48.836;9.172;2023-08-06T12:34:14;2.00;;;1.23;;
7150;SDS011;3617;48.836;9.172;2023-08-06T12:36:40;1.37;;;1.20;;
7150;SDS011;3617;48.836;9.172;2023-08-06T12:39:06;1.20;;;1.00;;
7150;SDS011;3617;48.836;9.172;2023-08-06T12:41:33;1.27;;;1.00;;
7150;SDS011;3617;48.836;9.172;2023-08-06T12:43:59;1.80;;;1.20;;
7150;SDS011;3617;48.836;9.172;2023-08-06T12:46:24;1.40;;;1.30;;
7150;SDS011;3617;48.836;9.172;2023-08-06T12:48:50;0.90;;;0.70;;
7150;SDS011;3617;48.836;9.172;2023-08-06T12:51:16;0.80;;;0.80;;
7150;SDS011;3617;48.836;9.172;2023-08-06T12:53:42;1.20;;;0.90;;
7150;SDS011;3617;48.836;9.172;2023-08-06T12:56:08;2.07;;;1.47;;
7150;SDS011;3617;48.836;9.172;2023-08-06T12:58:34;1.43;;;0.90;;
7150;SDS011;3617;48.836;9.172;2023-08-06T13:01:00;1.83;;;0.73;;
7150;SDS011;3617;48.836;9.172;2023-08-06T13:03:26;1.47;;;0.90;;
7150;SDS011;3617;48.836;9.172;2023-08-06T13:05:52;0.83;;;0.80;;
7150;SDS011;3617;48.836;9.172;2023-08-06T13:08:18;1.10;;;0.93;;
7150;SDS011;3617;48.836;9.172;2023-08-06T13:10:44;0.85;;;0.75;;
7150;SDS011;3617;48.836;9.172;2023-08-06T13:13:10;0.80;;;0.80;;
7150;SDS011;3617;48.836;9.172;2023-08-06T13:15:36;0.83;;;0.60;;
7150;SDS011;3617;48.836;9.172;2023-08-06T13:18:02;3.13;;;0.80;;
7150;SDS011;3617;48.836;9.172;2023-08-06T13:20:30;1.00;;;0.75;;
7150;SDS011;3617;48.836;9.172;2023-08-06T13:22:57;1.15;;;0.80;;
7150;SDS011;3617;48.836;9.172;2023-08-06T13:25:23;0.85;;;0.73;;
7150;SDS011;3617;48.836;9.172;2023-08-06T13:27:50;0.82;;;0.63;;
7150;SDS011;3617;48.836;9.172;2023-08-06T13:30:16;1.50;;;0.90;;
7150;SDS011;3617;48.836;9.172;2023-08-06T13:32:43;0.95;;;0.80;;
7150;SDS011;3617;48.836;9.172;2023-08-06T13:35:09;0.60;;;0.60;;
7150;SDS011;3617;48.836;9.172;2023-08-06T13:37:35;4.05;;;0.60;;
7150;SDS011;3617;48.836;9.172;2023-08-06T13:40:01;0.70;;;0.70;;
7150;SDS011;3617;48.836;9.172;2023-08-06T13:42:27;0.50;;;0.50;;
7150;SDS011;3617;48.836;9.172;2023-08-06T13:44:54;0.40;;;0.40;;
7150;SDS011;3617;48.836;9.172;2023-08-06T13:47:27;0.60;;;0.60;;
7150;SDS011;3617;48.836;9.172;2023-08-06T13:49:53;0.70;;;0.70;;
7150;SDS011;3617;48.836;9.172;2023-08-06T13:52:20;0.40;;;0.40;;
7150;SDS011;3617;48.836;9.172;2023-08-06T13:54:46;0.65;;;0.65;;
7150;SDS011;3617;48.836;9.172;2023-08-06T13:57:12;1.42;;;0.75;;
7150;SDS011;3617;48.836;9.172;2023-08-06T13:59:38;1.00;;;0.70;;
7150;SDS011;3617;48.836;9.172;2023-08-06T14:02:04;0.65;;;0.50;;
7150;SDS011;3617;48.836;9.172;2023-08-06T14:04:30;1.83;;;1.48;;
7150;SDS011;3617;48.836;9.172;2023-08-06T14:06:56;0.85;;;0.68;;
7150;SDS011;3617;48.836;9.172;2023-08-06T14:09:22;0.60;;;0.60;;
7150;SDS011;3617;48.836;9.172;2023-08-06T14:11:48;0.60;;;0.50;;
7150;SDS011;3617;48.836;9.172;2023-08-06T14:14:14;1.23;;;0.88;;
7150;SDS011;3617;48.836;9.172;2023-08-06T14:16:40;0.80;;;0.70;;
7150;SDS011;3617;48.836;9.172;2023-08-06T14:19:06;0.57;;;0.57;;
7150;SDS011;3617;48.836;9.172;2023-08-06T14:21:32;0.83;;;0.70;;
7150;SDS011;3617;48.836;9.172;2023-08-06T14:23:58;1.00;;;0.90;;
7150;SDS011;3617;48.836;9.172;2023-08-06T14:26:24;0.80;;;0.73;;
7150;SDS011;3617;48.836;9.172;2023-08-06T14:28:50;0.45;;;0.45;;
7150;SDS011;3617;48.836;9.172;2023-08-06T14:31:19;1.90;;;1.30;;
7150;SDS011;3617;48.836;9.172;2023-08-06T14:33:46;0.73;;;0.60;;
7150;SDS011;3617;48.836;9.172;2023-08-06T14:36:12;0.65;;;0.63;;
7150;SDS011;3617;48.836;9.172;2023-08-06T14:38:38;0.68;;;0.68;;
7150;SDS011;3617;48.836;9.172;2023-08-06T14:41:04;0.60;;;0.60;;
7150;SDS011;3617;48.836;9.172;2023-08-06T14:43:31;0.50;;;0.50;;
7150;SDS011;3617;48.836;9.172;2023-08-06T14:45:57;0.70;;;0.60;;
7150;SDS011;3617;48.836;9.172;2023-08-06T14:48:23;1.75;;;0.50;;
7150;SDS011;3617;48.836;9.172;2023-08-06T14:50:49;0.60;;;0.60;;
7150;SDS011;3617;48.836;9.172;2023-08-06T14:53:15;0.87;;;0.77;;
7150;SDS011;3617;48.836;9.172;2023-08-06T14:55:41;0.80;;;0.60;;
7150;SDS011;3617;48.836;9.172;2023-08-06T14:58:07;0.60;;;0.60;;
7150;SDS011;3617;48.836;9.172;2023-08-06T15:00:33;1.05;;;0.77;;
7150;SDS011;3617;48.836;9.172;2023-08-06T15:02:59;3.33;;;0.80;;
7150;SDS011;3617;48.836;9.172;2023-08-06T15:05:25;2.83;;;0.80;;
7150;SDS011;3617;48.836;9.172;2023-08-06T15:07:51;0.77;;;0.60;;
7150;SDS011;3617;48.836;9.172;2023-08-06T15:10:18;1.43;;;0.80;;
7150;SDS011;3617;48.836;9.172;2023-08-06T15:12:44;0.60;;;0.60;;
7150;SDS011;3617;48.836;9.172;2023-08-06T15:15:10;1.13;;;0.80;;
7150;SDS011;3617;48.836;9.172;2023-08-06T15:17:36;0.65;;;0.50;;